createdAt,value
2022-12-14T00:01:37.972Z,10.97
2022-12-14T00:04:05.015Z,8.50
2022-12-14T00:06:33.194Z,9.07
2022-12-14T00:09:02.875Z,8.10
2022-12-14T00:11:30.179Z,9.83
2022-12-14T00:13:59.892Z,7.63
2022-12-14T00:16:29.858Z,9.20
2022-12-14T00:18:58.464Z,9.03
2022-12-14T00:21:26.822Z,7.43
2022-12-14T00:23:54.036Z,8.10
2022-12-14T00:26:23.149Z,8.90
2022-12-14T00:28:52.383Z,9.27
2022-12-14T00:31:19.876Z,10.03
2022-12-14T00:33:47.067Z,8.13
2022-12-14T00:36:15.316Z,8.87
2022-12-14T00:38:43.132Z,8.70
2022-12-14T00:41:11.244Z,10.17
2022-12-14T00:43:38.542Z,9.83
2022-12-14T00:46:06.024Z,8.67
2022-12-14T00:48:33.331Z,10.03
2022-12-14T00:51:00.397Z,11.90
2022-12-14T00:53:27.283Z,9.37
2022-12-14T00:55:54.550Z,10.53
2022-12-14T00:58:24.565Z,10.80
2022-12-14T01:01:06.673Z,6.90
2022-12-14T01:03:34.535Z,9.30
2022-12-14T01:06:02.218Z,9.60
2022-12-14T01:08:35.793Z,10.53
2022-12-14T01:11:07.286Z,9.50
2022-12-14T01:13:35.528Z,9.37
2022-12-14T01:16:06.921Z,8.80
2022-12-14T01:18:35.680Z,9.60
2022-12-14T01:21:12.217Z,9.60
2022-12-14T01:23:39.588Z,9.40
2022-12-14T01:26:06.427Z,9.60
2022-12-14T01:28:35.097Z,8.53
2022-12-14T01:31:07.534Z,9.10
2022-12-14T01:33:34.449Z,8.63
2022-12-14T01:36:09.875Z,9.93
2022-12-14T01:38:37.241Z,6.90
2022-12-14T01:41:05.238Z,9.27
2022-12-14T01:43:52.824Z,9.80
2022-12-14T01:46:34.199Z,9.70
2022-12-14T01:49:13.468Z,8.47
2022-12-14T01:51:44.150Z,10.53
2022-12-14T01:54:12.623Z,15.50
2022-12-14T01:56:42.356Z,12.10
2022-12-14T01:59:13.791Z,8.57
2022-12-14T02:01:41.327Z,9.20
2022-12-14T02:04:09.949Z,8.70
2022-12-14T02:06:39.369Z,10.60
2022-12-14T02:09:11.210Z,11.60
2022-12-14T02:11:47.146Z,13.50
2022-12-14T02:14:14.057Z,13.03
2022-12-14T02:16:41.461Z,11.67
2022-12-14T02:19:08.335Z,12.23
2022-12-14T02:21:55.336Z,12.43
2022-12-14T02:24:28.027Z,14.00
2022-12-14T02:27:13.809Z,11.03
2022-12-14T02:30:01.856Z,10.83
2022-12-14T02:32:40.383Z,11.27
2022-12-14T02:35:28.434Z,11.37
2022-12-14T02:38:02.968Z,11.30
2022-12-14T02:40:48.793Z,11.70
2022-12-14T02:43:15.820Z,11.57
2022-12-14T02:46:04.646Z,14.90
2022-12-14T02:48:39.222Z,11.80
2022-12-14T02:51:14.783Z,14.17
2022-12-14T02:53:49.192Z,10.33
2022-12-14T02:56:22.723Z,13.13
2022-12-14T02:58:51.205Z,11.30
2022-12-14T03:01:24.051Z,10.80
2022-12-14T03:03:52.016Z,10.13
2022-12-14T03:06:30.700Z,12.10
2022-12-14T03:09:03.323Z,11.30
2022-12-14T03:11:43.235Z,12.40
2022-12-14T03:14:32.241Z,13.53
2022-12-14T03:17:14.113Z,11.30
2022-12-14T03:19:58.599Z,9.30
2022-12-14T03:22:46.491Z,12.40
2022-12-14T03:25:18.483Z,11.90
2022-12-14T03:27:53.604Z,12.73
2022-12-14T03:30:37.207Z,10.47
2022-12-14T03:33:13.510Z,11.10
2022-12-14T03:35:48.604Z,14.40
2022-12-14T03:38:26.665Z,11.30
2022-12-14T03:41:15.724Z,11.53
2022-12-14T03:43:53.353Z,13.20
2022-12-14T03:46:32.468Z,10.30
2022-12-14T03:49:20.388Z,11.17
2022-12-14T03:52:09.402Z,15.73
2022-12-14T03:54:54.361Z,11.40
2022-12-14T03:57:28.327Z,12.03
2022-12-14T04:00:12.334Z,11.13
2022-12-14T04:02:54.023Z,13.40
2022-12-14T04:05:49.274Z,12.53
2022-12-14T04:08:36.511Z,10.23
2022-12-14T04:11:25.774Z,11.20
2022-12-14T04:14:26.555Z,13.33
2022-12-14T04:17:14.012Z,10.13
2022-12-14T04:20:01.204Z,13.37
2022-12-14T04:22:32.984Z,12.40
2022-12-14T04:25:28.066Z,12.00
2022-12-14T04:28:04.192Z,12.03
2022-12-14T04:30:35.375Z,11.33
2022-12-14T04:33:27.175Z,15.03
2022-12-14T04:35:58.766Z,12.70
2022-12-14T04:38:38.063Z,11.07
2022-12-14T04:41:11.414Z,12.30
2022-12-14T04:43:42.357Z,12.47
2022-12-14T04:46:12.965Z,16.67
2022-12-14T04:48:45.345Z,14.83
2022-12-14T04:51:23.415Z,14.17
2022-12-14T04:53:55.932Z,12.97
2022-12-14T04:56:32.055Z,12.30
2022-12-14T04:58:59.188Z,12.13
2022-12-14T05:01:52.176Z,12.60
2022-12-14T05:04:56.725Z,11.37
2022-12-14T05:07:50.425Z,14.57
2022-12-14T05:10:37.768Z,11.63
2022-12-14T05:13:22.427Z,16.50
2022-12-14T05:15:52.473Z,14.10
2022-12-14T05:18:19.804Z,13.33
2022-12-14T05:20:47.851Z,13.80
2022-12-14T05:23:15.630Z,12.47
2022-12-14T05:25:42.792Z,16.23
2022-12-14T05:28:12.555Z,12.73
2022-12-14T05:30:39.696Z,12.03
2022-12-14T05:33:06.672Z,13.43
2022-12-14T05:35:33.563Z,12.27
2022-12-14T05:38:00.435Z,12.73
2022-12-14T05:40:27.371Z,21.47
2022-12-14T05:43:04.852Z,12.23
2022-12-14T05:45:31.933Z,13.03
2022-12-14T05:47:58.850Z,14.43
2022-12-14T05:50:25.752Z,11.20
2022-12-14T05:52:53.031Z,15.40
2022-12-14T05:55:19.861Z,12.63
2022-12-14T05:57:46.732Z,13.53
2022-12-14T06:00:14.169Z,14.27
2022-12-14T06:02:41.048Z,13.30
2022-12-14T06:05:08.251Z,12.23
2022-12-14T06:07:35.149Z,12.83
2022-12-14T06:10:01.997Z,11.40
2022-12-14T06:12:28.832Z,12.40
2022-12-14T06:14:55.673Z,11.97
2022-12-14T06:17:22.619Z,13.70
2022-12-14T06:19:50.211Z,15.87
2022-12-14T06:22:17.911Z,11.80
2022-12-14T06:24:44.763Z,12.80
2022-12-14T06:27:11.568Z,11.67
2022-12-14T06:29:38.442Z,14.80
2022-12-14T06:32:05.433Z,15.70
2022-12-14T06:34:38.071Z,13.10
2022-12-14T06:37:06.411Z,18.60
2022-12-14T06:39:33.287Z,11.30
2022-12-14T06:42:00.165Z,12.53
2022-12-14T06:44:27.038Z,14.33
2022-12-14T06:46:54.066Z,12.83
2022-12-14T06:49:20.967Z,11.60
2022-12-14T06:51:48.215Z,16.50
2022-12-14T06:54:16.567Z,12.70
2022-12-14T06:56:45.339Z,13.80
2022-12-14T06:59:13.243Z,13.50
2022-12-14T07:01:40.606Z,13.30
2022-12-14T07:04:09.296Z,12.60
2022-12-14T07:06:41.347Z,11.63
2022-12-14T07:09:12.006Z,11.17
2022-12-14T07:11:38.894Z,11.53
2022-12-14T07:14:07.101Z,19.17
2022-12-14T07:16:35.532Z,11.50
2022-12-14T07:19:02.434Z,20.30
2022-12-14T07:21:29.516Z,12.20
2022-12-14T07:23:56.475Z,16.00
2022-12-14T07:26:25.999Z,14.80
2022-12-14T07:28:53.513Z,15.80
2022-12-14T07:31:25.824Z,14.13
2022-12-14T07:33:54.938Z,13.10
2022-12-14T07:36:22.552Z,12.00
2022-12-14T07:38:50.770Z,12.90
2022-12-14T07:41:23.766Z,11.00
2022-12-14T07:43:52.326Z,18.33
2022-12-14T07:46:21.956Z,11.87
2022-12-14T07:48:54.307Z,15.57
2022-12-14T07:51:23.873Z,11.60
2022-12-14T07:53:51.614Z,12.03
2022-12-14T07:56:21.905Z,12.33
2022-12-14T07:58:49.430Z,13.40
2022-12-14T08:01:19.210Z,12.93
2022-12-14T08:03:48.552Z,15.10
2022-12-14T08:06:16.833Z,20.27
2022-12-14T08:08:43.739Z,14.17
2022-12-14T08:11:11.941Z,10.13
2022-12-14T08:13:39.227Z,11.13
2022-12-14T08:16:12.212Z,11.80
2022-12-14T08:18:39.081Z,13.70
2022-12-14T08:21:08.178Z,12.90
2022-12-14T08:23:35.604Z,12.40
2022-12-14T08:26:03.663Z,13.70
2022-12-14T08:28:31.784Z,16.40
2022-12-14T08:31:02.887Z,15.43
2022-12-14T08:33:30.106Z,15.40
2022-12-14T08:35:57.143Z,15.03
2022-12-14T08:38:24.019Z,14.20
2022-12-14T08:40:50.862Z,12.53
2022-12-14T08:43:23.236Z,15.87
2022-12-14T08:45:54.376Z,14.90
2022-12-14T08:48:21.196Z,15.70
2022-12-14T08:50:49.906Z,15.93
2022-12-14T08:53:17.370Z,13.80
2022-12-14T08:55:44.890Z,13.70
2022-12-14T08:58:12.085Z,13.03
2022-12-14T09:00:39.044Z,14.00
2022-12-14T09:03:06.976Z,12.80
2022-12-14T09:05:35.359Z,14.23
2022-12-14T09:08:02.227Z,15.37
2022-12-14T09:10:29.063Z,13.20
2022-12-14T09:12:55.945Z,14.50
2022-12-14T09:15:22.879Z,14.93
2022-12-14T09:17:50.923Z,11.33
2022-12-14T09:20:19.049Z,12.23
2022-12-14T09:22:46.212Z,14.90
2022-12-14T09:25:13.047Z,12.80
2022-12-14T09:27:39.867Z,14.77
2022-12-14T09:30:07.112Z,11.83
2022-12-14T09:32:33.950Z,12.50
2022-12-14T09:35:00.824Z,15.03
2022-12-14T09:37:27.734Z,16.90
2022-12-14T09:39:54.780Z,14.67
2022-12-14T09:42:51.833Z,14.00
2022-12-14T09:45:30.381Z,14.70
2022-12-14T09:48:08.007Z,16.53
2022-12-14T09:50:35.825Z,14.73
2022-12-14T09:53:07.373Z,12.80
2022-12-14T09:55:56.534Z,12.43
2022-12-14T09:58:29.958Z,12.60
2022-12-14T10:01:18.652Z,15.43
2022-12-14T10:04:24.672Z,12.17
2022-12-14T10:06:56.780Z,16.50
2022-12-14T10:09:38.642Z,15.27
2022-12-14T10:12:31.028Z,16.30
2022-12-14T10:15:49.091Z,15.43
2022-12-14T10:18:57.639Z,15.80
2022-12-14T10:21:23.024Z,12.53
2022-12-14T10:24:00.164Z,18.60
2022-12-14T10:26:36.208Z,14.97
2022-12-14T10:29:09.430Z,13.47
2022-12-14T10:31:48.186Z,13.83
2022-12-14T10:34:24.925Z,17.57
2022-12-14T10:36:58.309Z,15.60
2022-12-14T10:39:37.083Z,12.40
2022-12-14T10:42:20.019Z,12.77
2022-12-14T10:48:12.924Z,23.87
2022-12-14T10:51:00.006Z,15.00
2022-12-14T10:53:51.545Z,16.20
2022-12-14T10:56:33.652Z,15.77
2022-12-14T10:59:20.699Z,16.97
2022-12-14T11:02:02.175Z,14.57
2022-12-14T11:04:31.203Z,16.27
2022-12-14T11:07:04.365Z,19.50
2022-12-14T11:09:31.828Z,15.97
2022-12-14T11:12:13.759Z,16.23
2022-12-14T11:15:00.256Z,16.07
2022-12-14T11:17:30.125Z,17.20
2022-12-14T11:20:08.998Z,18.57
2022-12-14T11:22:52.728Z,18.07
2022-12-14T11:25:40.732Z,21.07
2022-12-14T11:28:36.141Z,18.23
2022-12-14T11:31:09.052Z,18.57
2022-12-14T11:33:45.322Z,20.93
2022-12-14T11:36:32.742Z,19.80
2022-12-14T11:39:02.470Z,15.87
2022-12-14T11:41:38.470Z,18.70
2022-12-14T11:44:17.303Z,17.70
2022-12-14T11:46:49.736Z,17.00
2022-12-14T11:49:43.375Z,18.30
2022-12-14T11:52:19.846Z,18.63
2022-12-14T11:55:12.225Z,17.60
2022-12-14T11:57:55.852Z,16.77
2022-12-14T12:00:46.741Z,19.67
2022-12-14T12:03:29.499Z,20.47
2022-12-14T12:06:02.619Z,19.20
2022-12-14T12:08:33.371Z,21.37
2022-12-14T12:11:05.150Z,23.63
2022-12-14T12:13:41.687Z,17.87
2022-12-14T12:16:21.909Z,24.53
2022-12-14T12:19:25.844Z,26.00
2022-12-14T12:21:53.881Z,20.73
2022-12-14T12:25:08.666Z,16.27
2022-12-14T12:27:34.020Z,18.27
2022-12-14T12:30:08.338Z,16.03
2022-12-14T12:32:42.637Z,18.70
2022-12-14T12:35:39.947Z,18.33
2022-12-14T12:38:26.206Z,20.50
2022-12-14T12:41:24.008Z,19.30
2022-12-14T12:44:22.539Z,19.43
2022-12-14T12:47:28.163Z,20.10
2022-12-14T12:50:07.207Z,21.60
2022-12-14T12:52:48.467Z,18.73
2022-12-14T12:55:19.066Z,18.97
2022-12-14T12:57:50.593Z,21.90
2022-12-14T13:00:22.878Z,25.10
2022-12-14T13:02:54.768Z,18.87
2022-12-14T13:08:23.926Z,19.07
2022-12-14T13:11:24.679Z,23.57
2022-12-14T13:13:46.996Z,18.23
2022-12-14T13:16:27.212Z,22.63
2022-12-14T13:21:50.946Z,20.60
2022-12-14T13:24:20.789Z,24.00
2022-12-14T13:27:06.200Z,22.37
2022-12-14T13:29:51.462Z,22.90
2022-12-14T13:32:21.149Z,22.30
2022-12-14T13:35:26.149Z,22.87
2022-12-14T13:38:04.730Z,22.07
2022-12-14T13:40:56.323Z,25.63
2022-12-14T13:43:52.059Z,22.20
2022-12-14T13:46:23.505Z,24.23
2022-12-14T13:48:55.591Z,24.73
2022-12-14T13:51:38.258Z,23.70
2022-12-14T13:54:07.947Z,24.03
2022-12-14T13:56:38.968Z,22.83
2022-12-14T13:59:37.012Z,22.60
2022-12-14T14:02:06.114Z,23.73
2022-12-14T14:04:35.778Z,25.60
2022-12-14T14:07:25.920Z,21.57
2022-12-14T14:09:55.719Z,22.90
2022-12-14T14:12:39.139Z,26.40
2022-12-14T14:15:08.913Z,22.03
2022-12-14T14:17:42.860Z,24.83
2022-12-14T14:20:28.447Z,21.73
2022-12-14T14:23:16.209Z,20.00
2022-12-14T14:25:48.790Z,20.20
2022-12-14T14:28:22.695Z,25.37
2022-12-14T14:30:54.241Z,19.37
2022-12-14T14:33:47.272Z,22.60
2022-12-14T14:36:37.745Z,26.97
2022-12-14T14:39:31.441Z,24.97
2022-12-14T14:41:56.390Z,21.93
2022-12-14T14:44:37.846Z,24.37
2022-12-14T14:47:28.936Z,21.97
2022-12-14T14:50:14.240Z,24.00
2022-12-14T14:52:41.609Z,22.80
2022-12-14T14:58:22.492Z,28.80
2022-12-14T15:00:52.636Z,24.83
2022-12-14T15:03:43.197Z,23.80
2022-12-14T15:06:16.268Z,25.43
2022-12-14T15:09:09.086Z,21.40
2022-12-14T15:11:48.871Z,20.37
2022-12-14T15:14:18.493Z,23.13
2022-12-14T15:16:45.841Z,23.17
2022-12-14T15:19:36.229Z,28.67
2022-12-14T15:22:09.379Z,25.20
2022-12-14T15:24:42.175Z,25.83
2022-12-14T15:27:17.831Z,22.70
2022-12-14T15:29:46.738Z,23.87
2022-12-14T15:32:18.527Z,26.07
2022-12-14T15:35:07.652Z,23.63
2022-12-14T15:37:41.617Z,25.20
2022-12-14T15:40:23.930Z,31.37
2022-12-14T15:42:58.516Z,30.43
2022-12-14T15:45:41.343Z,29.10
2022-12-14T15:48:15.201Z,26.43
2022-12-14T15:50:46.047Z,30.50
2022-12-14T15:53:19.298Z,26.33
2022-12-14T15:55:56.338Z,29.97
2022-12-14T15:58:27.234Z,23.57
2022-12-14T16:00:58.249Z,22.57
2022-12-14T16:03:44.746Z,25.20
2022-12-14T16:06:14.316Z,26.20
2022-12-14T16:08:57.749Z,26.70
2022-12-14T16:11:47.977Z,25.43
2022-12-14T16:14:17.859Z,32.17
2022-12-14T16:16:45.159Z,23.23
2022-12-14T16:19:27.953Z,26.50
2022-12-14T16:22:21.525Z,24.90
2022-12-14T16:25:07.529Z,25.63
2022-12-14T16:27:51.820Z,27.20
2022-12-14T16:30:24.099Z,26.20
2022-12-14T16:33:03.440Z,26.97
2022-12-14T16:35:34.261Z,26.40
2022-12-14T16:38:08.509Z,24.80
2022-12-14T16:40:38.681Z,25.83
2022-12-14T16:43:07.791Z,27.97
2022-12-14T16:45:44.132Z,25.83
2022-12-14T16:48:19.829Z,25.80
2022-12-14T16:51:10.455Z,27.90
2022-12-14T16:53:34.036Z,28.43
2022-12-14T16:56:03.265Z,25.47
2022-12-14T16:58:30.252Z,24.97
2022-12-14T17:00:59.691Z,26.30
2022-12-14T17:03:30.553Z,25.87
2022-12-14T17:06:01.456Z,25.87
2022-12-14T17:08:29.061Z,33.20
2022-12-14T17:10:55.929Z,28.20
2022-12-14T17:13:23.227Z,33.27
2022-12-14T17:15:55.536Z,61.23
2022-12-14T17:18:25.023Z,44.30
2022-12-14T17:20:51.891Z,43.10
2022-12-14T17:23:19.013Z,33.00
2022-12-14T17:25:47.907Z,28.40
2022-12-14T17:28:23.711Z,27.10
2022-12-14T17:30:54.321Z,22.00
2022-12-14T17:33:21.229Z,24.83
2022-12-14T17:35:48.184Z,26.30
2022-12-14T17:38:17.788Z,27.63
2022-12-14T17:40:46.878Z,26.90
2022-12-14T17:43:18.208Z,25.50
2022-12-14T17:45:45.255Z,28.30
2022-12-14T17:48:14.280Z,23.90
2022-12-14T17:50:43.968Z,28.73
2022-12-14T17:53:15.938Z,24.67
2022-12-14T17:55:42.907Z,24.00
2022-12-14T17:58:13.847Z,26.90
2022-12-14T18:00:59.435Z,25.70
2022-12-14T18:03:27.938Z,26.00
2022-12-14T18:05:55.266Z,31.00
2022-12-14T18:08:23.472Z,27.47
2022-12-14T18:10:54.979Z,29.67
2022-12-14T18:13:21.834Z,27.23
2022-12-14T18:15:50.827Z,28.83
2022-12-14T18:18:20.115Z,26.60
2022-12-14T18:20:51.145Z,30.17
2022-12-14T18:23:18.970Z,27.60
2022-12-14T18:25:52.503Z,29.73
2022-12-14T18:28:19.944Z,26.57
2022-12-14T18:30:55.700Z,27.37
2022-12-14T18:33:25.524Z,29.23
2022-12-14T18:35:53.597Z,28.43
2022-12-14T18:38:21.028Z,26.40
2022-12-14T18:40:50.299Z,28.80
2022-12-14T18:43:23.753Z,23.87
2022-12-14T18:45:52.108Z,27.07
2022-12-14T18:48:19.322Z,27.20
2022-12-14T18:50:46.332Z,28.40
2022-12-14T18:53:18.971Z,25.70
2022-12-14T18:55:46.567Z,30.23
2022-12-14T18:58:20.001Z,26.20
2022-12-14T19:00:48.350Z,28.20
2022-12-14T19:03:15.467Z,26.23
2022-12-14T19:05:42.595Z,27.30
2022-12-14T19:08:10.687Z,26.17
2022-12-14T19:10:41.050Z,29.97
2022-12-14T19:13:10.502Z,27.17
2022-12-14T19:15:37.440Z,28.57
2022-12-14T19:18:04.364Z,29.67
2022-12-14T19:20:31.324Z,29.00
2022-12-14T19:22:58.216Z,27.07
2022-12-14T19:25:25.215Z,31.20
2022-12-14T19:30:39.819Z,27.60
2022-12-14T19:33:06.739Z,31.03
2022-12-14T19:35:33.629Z,29.93
2022-12-14T19:38:00.533Z,31.03
2022-12-14T19:40:27.447Z,28.63
2022-12-14T19:42:54.402Z,33.13
2022-12-14T19:45:21.304Z,32.13
2022-12-14T19:47:48.220Z,32.50
2022-12-14T19:50:15.545Z,33.13
2022-12-14T19:52:43.090Z,39.83
2022-12-14T19:55:10.774Z,39.80
2022-12-14T19:57:39.205Z,34.77
2022-12-14T20:00:09.938Z,40.13
2022-12-14T20:02:37.763Z,45.57
2022-12-14T20:05:05.541Z,38.20
2022-12-14T20:07:32.485Z,33.57
2022-12-14T20:09:59.315Z,35.70
2022-12-14T20:12:26.428Z,37.50
2022-12-14T20:14:53.343Z,41.10
2022-12-14T20:17:20.275Z,38.57
2022-12-14T20:19:47.177Z,37.17
2022-12-14T20:22:15.116Z,49.93
2022-12-14T20:24:42.614Z,45.10
2022-12-14T20:27:09.537Z,44.30
2022-12-14T20:29:37.568Z,44.70
2022-12-14T20:32:04.522Z,46.03
2022-12-14T20:34:33.184Z,56.63
2022-12-14T20:37:00.593Z,59.07
2022-12-14T20:39:27.527Z,56.33
2022-12-14T20:41:54.348Z,64.57
2022-12-14T20:44:21.300Z,65.37
2022-12-14T20:46:51.830Z,61.73
2022-12-14T20:49:21.330Z,50.43
2022-12-14T20:51:48.551Z,51.50
2022-12-14T20:54:18.266Z,49.83
2022-12-14T20:56:49.618Z,43.37
2022-12-14T20:59:17.384Z,46.13
2022-12-14T21:01:46.831Z,43.40
2022-12-14T21:04:17.103Z,49.63
2022-12-14T21:06:43.982Z,47.57
2022-12-14T21:09:11.746Z,43.83
2022-12-14T21:12:00.476Z,44.20
2022-12-14T21:14:30.095Z,45.23
2022-12-14T21:16:57.172Z,41.83
2022-12-14T21:19:24.225Z,40.53
2022-12-14T21:21:53.905Z,46.37
2022-12-14T21:24:44.677Z,41.40
2022-12-14T21:27:21.870Z,36.77
2022-12-14T21:29:49.852Z,44.10
2022-12-14T21:32:18.339Z,48.13
2022-12-14T21:34:45.968Z,65.60
2022-12-14T21:37:13.289Z,88.73
2022-12-14T21:39:40.702Z,53.30
2022-12-14T21:42:10.742Z,42.10
2022-12-14T21:44:38.679Z,44.53
2022-12-14T21:47:08.628Z,41.33
2022-12-14T21:49:40.624Z,43.80
2022-12-14T21:52:08.575Z,44.80
2022-12-14T21:54:35.977Z,43.60
2022-12-14T21:57:21.387Z,34.40
2022-12-14T21:59:48.289Z,39.17
2022-12-14T22:02:25.911Z,34.00
2022-12-14T22:04:56.373Z,45.73
2022-12-14T22:07:25.409Z,43.80
2022-12-14T22:09:52.290Z,35.07
2022-12-14T22:12:19.141Z,42.87
2022-12-14T22:14:45.987Z,49.40
2022-12-14T22:17:14.753Z,47.07
2022-12-14T22:19:41.968Z,38.33
2022-12-14T22:22:13.975Z,49.57
2022-12-14T22:24:41.002Z,50.30
2022-12-14T22:27:08.765Z,50.63
2022-12-14T22:29:35.648Z,43.93
2022-12-14T22:32:02.951Z,37.33
2022-12-14T22:34:29.866Z,40.20
2022-12-14T22:36:56.787Z,35.90
2022-12-14T22:39:23.591Z,35.43
2022-12-14T22:41:50.589Z,41.80
2022-12-14T22:44:17.445Z,36.40
2022-12-14T22:46:44.389Z,48.50
2022-12-14T22:49:18.500Z,40.70
2022-12-14T22:51:45.848Z,38.60
2022-12-14T22:54:20.330Z,40.93
2022-12-14T22:56:54.495Z,40.07
2022-12-14T22:59:36.414Z,39.00
2022-12-14T23:02:04.231Z,34.53
2022-12-14T23:04:31.767Z,74.80
2022-12-14T23:06:58.749Z,81.50
2022-12-14T23:09:44.340Z,36.73
2022-12-14T23:12:29.919Z,34.20
2022-12-14T23:15:15.391Z,40.43
2022-12-14T23:18:00.984Z,44.53
2022-12-14T23:20:46.504Z,39.87
2022-12-14T23:23:32.083Z,44.40
2022-12-14T23:26:23.697Z,46.47
2022-12-14T23:29:09.282Z,42.20
2022-12-14T23:31:54.914Z,37.30
2022-12-14T23:34:40.554Z,40.07
2022-12-14T23:37:25.973Z,45.33
2022-12-14T23:40:11.443Z,41.57
2022-12-14T23:42:56.982Z,40.87
2022-12-14T23:45:42.293Z,45.23
2022-12-14T23:48:27.972Z,37.00
2022-12-14T23:51:13.414Z,36.70
2022-12-14T23:53:59.175Z,39.60
2022-12-14T23:56:44.717Z,35.87
2022-12-14T23:59:32.673Z,40.93
